createdAt,value
2023-03-10T00:01:14.632Z,9.70
2023-03-10T00:03:41.530Z,9.80
2023-03-10T00:06:09.923Z,9.80
2023-03-10T00:08:36.859Z,9.70
2023-03-10T00:11:03.705Z,9.80
2023-03-10T00:13:30.459Z,9.80
2023-03-10T00:15:57.624Z,9.70
2023-03-10T00:18:24.361Z,9.60
2023-03-10T00:20:52.689Z,9.60
2023-03-10T00:23:20.261Z,9.60
2023-03-10T00:25:57.718Z,9.60
2023-03-10T00:28:25.899Z,9.60
2023-03-10T00:31:06.132Z,9.50
2023-03-10T00:33:35.024Z,9.50
2023-03-10T00:36:11.285Z,9.50
2023-03-10T00:38:38.816Z,9.40
2023-03-10T00:41:08.768Z,9.30
2023-03-10T00:43:36.477Z,9.40
2023-03-10T00:46:04.177Z,9.60
2023-03-10T00:48:32.189Z,9.50
2023-03-10T00:50:59.294Z,9.50
2023-03-10T00:53:26.679Z,9.50
2023-03-10T00:56:10.050Z,9.50
2023-03-10T00:58:36.845Z,9.50
2023-03-10T01:01:05.086Z,9.70
2023-03-10T01:03:32.453Z,9.60
2023-03-10T01:05:59.195Z,9.50
2023-03-10T01:08:26.000Z,9.50
2023-03-10T01:10:52.819Z,9.50
2023-03-10T01:13:19.960Z,9.50
2023-03-10T01:15:50.841Z,9.50
2023-03-10T01:18:20.069Z,9.40
2023-03-10T01:20:46.986Z,9.50
2023-03-10T01:23:22.560Z,9.60
2023-03-10T01:25:50.000Z,9.50
2023-03-10T01:28:18.466Z,9.60
2023-03-10T01:30:45.760Z,9.60
2023-03-10T01:33:13.251Z,9.50
2023-03-10T01:35:40.882Z,9.40
2023-03-10T01:38:08.688Z,9.40
2023-03-10T01:40:37.358Z,9.50
2023-03-10T01:43:22.996Z,9.50
2023-03-10T01:45:52.727Z,9.60
2023-03-10T01:48:22.237Z,9.60
2023-03-10T01:50:53.707Z,9.60
2023-03-10T01:53:22.317Z,9.60
2023-03-10T01:55:54.660Z,9.60
2023-03-10T01:58:24.773Z,9.60
2023-03-10T02:00:53.896Z,9.60
2023-03-10T02:03:28.826Z,9.60
2023-03-10T02:05:59.581Z,9.70
2023-03-10T02:08:31.511Z,9.60
2023-03-10T02:10:59.134Z,9.60
2023-03-10T02:13:25.825Z,9.60
2023-03-10T02:15:53.288Z,9.60
2023-03-10T02:18:21.420Z,9.70
2023-03-10T02:21:06.913Z,9.80
2023-03-10T02:24:01.635Z,9.80
2023-03-10T02:26:55.548Z,9.90
2023-03-10T02:29:59.210Z,9.80
2023-03-10T02:32:34.463Z,9.80
2023-03-10T02:35:01.369Z,9.80
2023-03-10T02:37:32.044Z,9.80
2023-03-10T02:39:59.404Z,9.90
2023-03-10T02:42:33.927Z,9.90
2023-03-10T02:45:02.537Z,9.70
2023-03-10T02:47:29.383Z,9.70
2023-03-10T02:49:56.107Z,9.70
2023-03-10T02:52:35.175Z,9.60
2023-03-10T02:55:01.877Z,9.60
2023-03-10T02:57:29.034Z,9.70
2023-03-10T02:59:55.837Z,9.60
2023-03-10T03:02:22.541Z,9.60
2023-03-10T03:04:49.209Z,9.50
2023-03-10T03:07:15.889Z,9.60
2023-03-10T03:09:42.738Z,9.50
2023-03-10T03:12:09.910Z,9.50
2023-03-10T03:14:37.034Z,9.60
2023-03-10T03:17:05.803Z,9.60
2023-03-10T03:19:32.778Z,9.80
2023-03-10T03:21:59.495Z,9.70
2023-03-10T03:24:28.398Z,9.70
2023-03-10T03:26:55.156Z,9.60
2023-03-10T03:29:25.328Z,9.60
2023-03-10T03:31:52.765Z,9.60
2023-03-10T03:34:23.782Z,9.50
2023-03-10T03:36:53.516Z,9.60
2023-03-10T03:39:25.886Z,9.60
2023-03-10T03:41:57.391Z,9.60
2023-03-10T03:44:27.138Z,9.50
2023-03-10T03:46:55.434Z,9.60
2023-03-10T03:49:23.301Z,9.50
2023-03-10T03:51:49.998Z,9.50
2023-03-10T03:54:16.709Z,9.40
2023-03-10T03:56:43.732Z,9.50
2023-03-10T03:59:12.931Z,9.50
2023-03-10T04:01:40.283Z,9.50
2023-03-10T04:04:07.104Z,9.60
2023-03-10T04:06:34.692Z,9.70
2023-03-10T04:09:01.717Z,9.50
2023-03-10T04:11:29.694Z,9.50
2023-03-10T04:13:56.438Z,9.50
2023-03-10T04:16:23.197Z,9.40
2023-03-10T04:18:50.121Z,9.50
2023-03-10T04:21:17.592Z,9.50
2023-03-10T04:23:46.421Z,9.50
2023-03-10T04:26:16.657Z,9.50
2023-03-10T04:28:44.268Z,9.40
2023-03-10T04:31:17.249Z,9.40
2023-03-10T04:33:46.050Z,9.40
2023-03-10T04:36:13.809Z,9.40
2023-03-10T04:38:41.561Z,9.30
2023-03-10T04:41:09.409Z,9.30
2023-03-10T04:43:42.687Z,9.50
2023-03-10T04:46:10.196Z,9.40
2023-03-10T04:48:38.232Z,9.50
2023-03-10T04:51:08.607Z,9.60
2023-03-10T04:53:40.423Z,9.50
2023-03-10T04:56:08.252Z,9.50
2023-03-10T04:58:37.037Z,9.50
2023-03-10T05:01:13.054Z,9.40
2023-03-10T05:03:45.309Z,9.40
2023-03-10T05:06:19.526Z,9.30
2023-03-10T05:08:53.039Z,9.30
2023-03-10T05:11:24.001Z,9.20
2023-03-10T05:13:51.125Z,9.20
2023-03-10T05:16:20.349Z,9.20
2023-03-10T05:18:48.418Z,9.10
2023-03-10T05:21:21.744Z,9.20
2023-03-10T05:23:49.845Z,9.20
2023-03-10T05:26:17.740Z,9.30
2023-03-10T05:28:44.670Z,9.30
2023-03-10T05:31:16.415Z,9.30
2023-03-10T05:33:45.587Z,9.30
2023-03-10T05:36:14.671Z,9.30
2023-03-10T05:38:43.541Z,9.40
2023-03-10T05:41:13.197Z,9.30
2023-03-10T05:43:41.549Z,9.30
2023-03-10T05:46:09.653Z,9.40
2023-03-10T05:48:43.354Z,9.40
2023-03-10T05:51:12.118Z,9.50
2023-03-10T05:53:40.563Z,9.50
2023-03-10T05:56:17.008Z,9.40
2023-03-10T05:58:46.865Z,9.30
2023-03-10T06:01:16.925Z,9.30
2023-03-10T06:03:45.068Z,9.30
2023-03-10T06:06:12.310Z,9.30
2023-03-10T06:08:39.306Z,9.30
2023-03-10T06:11:06.318Z,9.40
2023-03-10T06:13:33.053Z,9.30
2023-03-10T06:16:02.403Z,9.40
2023-03-10T06:18:29.756Z,9.50
2023-03-10T06:20:56.579Z,9.40
2023-03-10T06:23:24.694Z,9.40
2023-03-10T06:26:22.652Z,9.40
2023-03-10T06:28:49.332Z,9.30
2023-03-10T06:31:19.650Z,9.40
2023-03-10T06:33:46.571Z,9.50
2023-03-10T06:36:13.928Z,9.40
2023-03-10T06:38:41.289Z,9.50
2023-03-10T06:41:08.808Z,9.50
2023-03-10T06:43:36.121Z,9.50
2023-03-10T06:46:04.610Z,9.60
2023-03-10T06:48:31.608Z,9.60
2023-03-10T06:50:58.346Z,9.80
2023-03-10T06:53:26.936Z,9.90
2023-03-10T06:56:01.981Z,9.90
2023-03-10T06:58:30.156Z,10.00
2023-03-10T07:00:56.974Z,9.90
2023-03-10T07:03:26.107Z,9.70
2023-03-10T07:05:53.314Z,9.40
2023-03-10T07:08:20.075Z,9.40
2023-03-10T07:10:46.780Z,9.40
2023-03-10T07:13:17.406Z,9.00
2023-03-10T07:15:45.525Z,8.90
2023-03-10T07:18:13.325Z,8.90
2023-03-10T07:20:42.255Z,8.90
2023-03-10T07:23:08.948Z,9.00
2023-03-10T07:25:36.688Z,9.00
2023-03-10T07:28:04.384Z,9.00
2023-03-10T07:30:32.221Z,9.10
2023-03-10T07:32:59.043Z,9.00
2023-03-10T07:35:25.800Z,9.10
2023-03-10T07:37:52.514Z,9.10
2023-03-10T07:40:24.635Z,9.20
2023-03-10T07:42:54.423Z,9.20
2023-03-10T07:45:22.406Z,9.10
2023-03-10T07:47:50.884Z,9.40
2023-03-10T07:50:18.082Z,9.40
2023-03-10T07:52:44.830Z,9.60
2023-03-10T07:55:12.214Z,9.60
2023-03-10T07:57:38.958Z,9.40
2023-03-10T08:00:06.735Z,9.30
2023-03-10T08:02:39.482Z,9.30
2023-03-10T08:05:07.071Z,9.50
2023-03-10T08:07:34.352Z,9.60
2023-03-10T08:10:01.238Z,9.20
2023-03-10T08:12:27.888Z,9.40
2023-03-10T08:14:54.556Z,9.20
2023-03-10T08:17:21.252Z,9.20
2023-03-10T08:19:48.135Z,9.10
2023-03-10T08:22:16.302Z,9.10
2023-03-10T08:24:42.991Z,8.90
2023-03-10T08:27:09.894Z,9.00
2023-03-10T08:29:36.795Z,9.00
2023-03-10T08:32:03.594Z,9.00
2023-03-10T08:34:35.074Z,9.10
2023-03-10T08:37:01.863Z,9.20
2023-03-10T08:39:29.246Z,9.10
2023-03-10T08:41:56.102Z,9.20
2023-03-10T08:44:22.992Z,9.20
2023-03-10T08:46:50.717Z,9.20
2023-03-10T08:49:19.764Z,9.30
2023-03-10T08:51:46.877Z,9.30
2023-03-10T08:54:16.107Z,9.00
2023-03-10T08:56:42.765Z,8.90
2023-03-10T08:59:09.850Z,8.80
2023-03-10T09:01:38.181Z,8.90
2023-03-10T09:04:07.072Z,8.80
2023-03-10T09:06:34.719Z,8.90
2023-03-10T09:09:01.894Z,8.80
2023-03-10T09:11:34.194Z,8.80
2023-03-10T09:14:02.237Z,8.80
2023-03-10T09:16:29.967Z,8.80
2023-03-10T09:18:58.072Z,8.80
2023-03-10T09:21:25.474Z,8.70
2023-03-10T09:23:53.113Z,8.80
2023-03-10T09:26:21.433Z,8.70
2023-03-10T09:28:50.867Z,8.60
2023-03-10T09:31:21.438Z,8.70
2023-03-10T09:33:48.801Z,8.80
2023-03-10T09:36:17.215Z,8.80
2023-03-10T09:38:43.953Z,8.80
2023-03-10T09:41:50.277Z,8.70
2023-03-10T09:44:32.037Z,8.70
2023-03-10T09:47:13.685Z,8.50
2023-03-10T09:50:03.383Z,8.40
2023-03-10T09:52:46.504Z,8.40
2023-03-10T09:55:23.140Z,8.50
2023-03-10T09:57:52.403Z,8.80
2023-03-10T10:00:29.089Z,8.70
2023-03-10T10:03:03.293Z,8.70
2023-03-10T10:05:33.642Z,8.60
2023-03-10T10:08:05.977Z,8.70
2023-03-10T10:10:36.557Z,8.90
2023-03-10T10:13:13.749Z,9.00
2023-03-10T10:15:45.331Z,9.20
2023-03-10T10:18:19.688Z,9.20
2023-03-10T10:20:58.527Z,9.20
2023-03-10T10:23:40.627Z,9.30
2023-03-10T10:26:16.653Z,9.80
2023-03-10T10:28:48.247Z,10.10
2023-03-10T10:31:21.470Z,10.00
2023-03-10T10:33:53.419Z,9.90
2023-03-10T10:36:20.766Z,9.70
2023-03-10T10:38:52.876Z,9.60
2023-03-10T10:41:24.086Z,9.80
2023-03-10T10:43:50.850Z,9.80
2023-03-10T10:46:25.981Z,9.90
2023-03-10T10:49:27.807Z,9.90
2023-03-10T10:52:01.601Z,10.00
2023-03-10T10:54:35.107Z,10.00
2023-03-10T10:57:02.646Z,10.20
2023-03-10T10:59:34.912Z,10.50
2023-03-10T11:02:03.861Z,10.40
2023-03-10T11:04:43.838Z,10.40
2023-03-10T11:07:25.082Z,10.50
2023-03-10T11:09:51.962Z,9.80
2023-03-10T11:12:24.328Z,10.20
2023-03-10T11:15:03.218Z,10.00
2023-03-10T11:17:57.602Z,9.70
2023-03-10T11:20:27.203Z,9.90
2023-03-10T11:23:12.494Z,10.20
2023-03-10T11:25:47.506Z,10.10
2023-03-10T11:28:31.210Z,9.60
2023-03-10T11:31:25.278Z,9.30
2023-03-10T11:34:13.622Z,9.50
2023-03-10T11:37:05.289Z,9.60
2023-03-10T11:39:43.147Z,9.50
2023-03-10T11:42:25.193Z,9.60
2023-03-10T11:45:04.662Z,9.90
2023-03-10T11:48:13.537Z,9.80
2023-03-10T11:50:59.042Z,9.90
2023-03-10T11:53:38.934Z,9.80
2023-03-10T11:56:08.920Z,9.60
2023-03-10T11:59:06.214Z,9.30
2023-03-10T12:01:51.555Z,9.40
2023-03-10T12:04:30.659Z,9.00
2023-03-10T12:07:07.645Z,9.20
2023-03-10T12:09:46.390Z,9.10
2023-03-10T12:12:18.702Z,9.30
2023-03-10T12:14:46.628Z,9.40
2023-03-10T12:17:15.224Z,9.50
2023-03-10T12:20:12.999Z,9.50
2023-03-10T12:22:41.913Z,9.70
2023-03-10T12:25:30.693Z,9.40
2023-03-10T12:28:16.290Z,9.50
2023-03-10T12:30:58.394Z,9.50
2023-03-10T12:33:34.355Z,9.60
2023-03-10T12:36:15.774Z,9.80
2023-03-10T12:38:44.578Z,9.80
2023-03-10T12:41:12.759Z,9.60
2023-03-10T12:43:48.557Z,9.50
2023-03-10T12:46:29.239Z,9.50
2023-03-10T12:49:16.157Z,9.40
2023-03-10T12:51:49.751Z,9.60
2023-03-10T12:54:33.793Z,9.60
2023-03-10T12:57:07.747Z,9.80
2023-03-10T13:00:05.059Z,9.50
2023-03-10T13:02:56.385Z,9.50
2023-03-10T13:05:27.664Z,9.30
2023-03-10T13:07:58.170Z,9.40
2023-03-10T13:10:27.133Z,9.30
2023-03-10T13:12:58.624Z,9.30
2023-03-10T13:15:28.847Z,9.40
2023-03-10T13:18:09.646Z,9.50
2023-03-10T13:20:38.107Z,9.40
2023-03-10T13:23:05.047Z,9.50
2023-03-10T13:25:36.555Z,9.60
2023-03-10T13:28:11.624Z,9.60
2023-03-10T13:30:38.303Z,9.70
2023-03-10T13:33:13.283Z,9.40
2023-03-10T13:35:41.881Z,9.50
2023-03-10T13:38:18.900Z,9.30
2023-03-10T13:40:48.171Z,9.30
2023-03-10T13:43:39.736Z,9.20
2023-03-10T13:46:14.982Z,9.30
2023-03-10T13:48:42.465Z,9.20
2023-03-10T13:51:19.822Z,9.10
2023-03-10T13:53:52.519Z,9.30
2023-03-10T13:56:40.666Z,9.20
2023-03-10T13:59:15.374Z,9.10
2023-03-10T14:01:48.021Z,9.00
2023-03-10T14:04:18.720Z,8.80
2023-03-10T14:06:45.948Z,8.80
2023-03-10T14:09:21.356Z,8.90
2023-03-10T14:11:50.236Z,9.00
2023-03-10T14:14:34.677Z,9.10
2023-03-10T14:17:04.155Z,9.10
2023-03-10T14:19:42.891Z,8.80
2023-03-10T14:22:40.515Z,8.90
2023-03-10T14:25:19.644Z,8.70
2023-03-10T14:27:53.719Z,8.60
2023-03-10T14:30:32.459Z,8.40
2023-03-10T14:33:00.659Z,8.20
2023-03-10T14:35:29.871Z,8.10
2023-03-10T14:37:56.661Z,8.20
2023-03-10T14:40:25.378Z,8.20
2023-03-10T14:42:53.970Z,8.10
2023-03-10T14:45:32.778Z,8.00
2023-03-10T14:48:02.257Z,7.80
2023-03-10T14:50:29.652Z,7.70
2023-03-10T14:52:56.366Z,7.80
2023-03-10T14:55:23.423Z,7.80
2023-03-10T14:57:56.602Z,7.80
2023-03-10T15:00:23.601Z,7.60
2023-03-10T15:02:50.249Z,7.60
2023-03-10T15:05:19.474Z,7.60
2023-03-10T15:07:48.638Z,7.50
2023-03-10T15:10:17.317Z,7.50
2023-03-10T15:12:44.343Z,7.40
2023-03-10T15:15:20.539Z,7.50
2023-03-10T15:17:47.413Z,7.50
2023-03-10T15:20:23.228Z,7.40
2023-03-10T15:22:51.521Z,7.40
2023-03-10T15:25:21.174Z,7.40
2023-03-10T15:27:49.540Z,7.30
2023-03-10T15:30:26.285Z,7.40
2023-03-10T15:32:53.497Z,7.30
2023-03-10T15:35:21.726Z,7.40
2023-03-10T15:37:49.553Z,7.40
2023-03-10T15:40:22.472Z,7.40
2023-03-10T15:42:49.793Z,7.30
2023-03-10T15:45:18.342Z,7.30
2023-03-10T15:47:46.122Z,7.40
2023-03-10T15:50:14.169Z,7.40
2023-03-10T15:52:46.319Z,7.50
2023-03-10T15:55:14.912Z,7.40
2023-03-10T15:57:41.941Z,7.30
2023-03-10T16:00:09.561Z,7.30
2023-03-10T16:02:36.477Z,7.30
2023-03-10T16:05:05.165Z,7.40
2023-03-10T16:07:33.268Z,7.20
2023-03-10T16:09:59.963Z,7.20
2023-03-10T16:12:27.440Z,7.20
2023-03-10T16:14:55.349Z,7.20
2023-03-10T16:17:22.916Z,7.30
2023-03-10T16:19:49.940Z,7.30
2023-03-10T16:22:16.868Z,7.30
2023-03-10T16:24:43.595Z,7.30
2023-03-10T16:27:10.832Z,7.30
2023-03-10T16:29:40.116Z,7.20
2023-03-10T16:32:09.989Z,7.10
2023-03-10T16:34:36.777Z,7.10
2023-03-10T16:37:03.844Z,7.00
2023-03-10T16:39:31.292Z,6.90
2023-03-10T16:41:58.744Z,7.00
2023-03-10T16:44:25.506Z,7.00
2023-03-10T16:46:52.604Z,6.90
2023-03-10T16:49:19.512Z,6.90
2023-03-10T16:51:47.349Z,7.00
2023-03-10T16:54:20.485Z,7.00
2023-03-10T16:56:52.686Z,6.90
2023-03-10T16:59:22.139Z,6.90
2023-03-10T17:01:49.859Z,6.90
2023-03-10T17:04:16.985Z,6.50
2023-03-10T17:06:44.653Z,6.30
2023-03-10T17:09:13.234Z,6.30
2023-03-10T17:11:43.853Z,6.20
2023-03-10T17:14:14.144Z,6.20
2023-03-10T17:16:42.193Z,6.20
2023-03-10T17:19:19.668Z,6.20
2023-03-10T17:21:49.192Z,6.30
2023-03-10T17:24:17.769Z,6.40
2023-03-10T17:26:45.353Z,6.40
2023-03-10T17:29:12.104Z,6.40
2023-03-10T17:31:38.935Z,6.20
2023-03-10T17:34:10.655Z,6.30
2023-03-10T17:36:37.369Z,6.30
2023-03-10T17:39:05.418Z,6.30
2023-03-10T17:41:33.979Z,6.20
2023-03-10T17:44:00.731Z,6.30
2023-03-10T17:46:29.681Z,6.30
2023-03-10T17:48:57.086Z,6.10
2023-03-10T17:51:26.314Z,6.10
2023-03-10T17:53:56.063Z,6.00
2023-03-10T17:56:22.987Z,6.00
2023-03-10T17:58:52.618Z,6.00
2023-03-10T18:01:22.854Z,6.00
2023-03-10T18:03:49.536Z,5.90
2023-03-10T18:06:24.789Z,5.80
2023-03-10T18:08:53.711Z,5.70
2023-03-10T18:11:22.416Z,5.60
2023-03-10T18:13:49.162Z,5.30
2023-03-10T18:16:27.598Z,5.10
2023-03-10T18:18:56.053Z,5.20
2023-03-10T18:21:24.084Z,5.10
2023-03-10T18:23:52.204Z,5.10
2023-03-10T18:26:22.213Z,5.00
2023-03-10T18:28:48.905Z,5.00
2023-03-10T18:31:25.584Z,5.00
2023-03-10T18:33:52.811Z,5.00
2023-03-10T18:36:20.884Z,5.00
2023-03-10T18:38:48.147Z,5.00
2023-03-10T18:41:18.505Z,5.10
2023-03-10T18:43:45.479Z,5.00
2023-03-10T18:46:12.243Z,4.90
2023-03-10T18:48:39.027Z,4.90
2023-03-10T18:51:06.125Z,5.00
2023-03-10T18:53:32.853Z,4.80
2023-03-10T18:55:59.865Z,4.60
2023-03-10T18:58:26.600Z,4.60
2023-03-10T19:00:53.295Z,4.60
2023-03-10T19:03:20.113Z,4.50
2023-03-10T19:05:51.484Z,4.50
2023-03-10T19:08:18.837Z,4.40
2023-03-10T19:10:45.599Z,4.30
2023-03-10T19:13:12.259Z,4.30
2023-03-10T19:15:38.883Z,4.30
2023-03-10T19:18:05.634Z,4.30
2023-03-10T19:20:32.319Z,4.30
2023-03-10T19:22:58.977Z,4.10
2023-03-10T19:25:25.669Z,4.10
2023-03-10T19:27:52.384Z,4.00
2023-03-10T19:30:20.210Z,4.00
2023-03-10T19:32:47.818Z,4.00
2023-03-10T19:35:15.816Z,4.00
2023-03-10T19:37:46.935Z,4.10
2023-03-10T19:40:16.203Z,4.10
2023-03-10T19:42:43.971Z,4.10
2023-03-10T19:45:12.790Z,4.10
2023-03-10T19:47:41.401Z,4.10
2023-03-10T19:50:11.105Z,4.10
2023-03-10T19:52:42.040Z,4.10
2023-03-10T19:55:10.156Z,4.10
2023-03-10T19:57:37.092Z,4.00
2023-03-10T20:00:09.922Z,4.10
2023-03-10T20:02:36.662Z,4.10
2023-03-10T20:05:03.338Z,4.10
2023-03-10T20:07:30.043Z,4.10
2023-03-10T20:09:56.736Z,4.10
2023-03-10T20:12:23.378Z,4.00
2023-03-10T20:14:50.138Z,4.10
2023-03-10T20:17:19.209Z,4.00
2023-03-10T20:19:46.048Z,4.10
2023-03-10T20:22:15.093Z,4.20
2023-03-10T20:24:41.765Z,4.20
2023-03-10T20:27:08.566Z,4.10
2023-03-10T20:29:35.268Z,4.10
2023-03-10T20:32:04.207Z,4.10
2023-03-10T20:34:31.697Z,4.10
2023-03-10T20:36:58.506Z,4.10
2023-03-10T20:39:25.283Z,4.20
2023-03-10T20:41:52.046Z,4.10
2023-03-10T20:44:19.138Z,4.10
2023-03-10T20:46:46.254Z,4.20
2023-03-10T20:49:13.118Z,4.10
2023-03-10T20:51:40.073Z,4.00
2023-03-10T20:54:07.407Z,3.90
2023-03-10T20:56:34.073Z,3.90
2023-03-10T20:59:01.712Z,4.00
2023-03-10T21:01:29.907Z,4.20
2023-03-10T21:03:58.448Z,4.20
2023-03-10T21:06:26.956Z,3.80
2023-03-10T21:08:53.907Z,3.90
2023-03-10T21:11:20.804Z,3.90
2023-03-10T21:13:47.660Z,4.00
2023-03-10T21:16:14.469Z,3.90
2023-03-10T21:18:41.262Z,3.90
2023-03-10T21:21:09.461Z,3.90
2023-03-10T21:23:40.989Z,3.90
2023-03-10T21:26:12.872Z,3.90
2023-03-10T21:28:39.850Z,4.00
2023-03-10T21:31:06.744Z,4.00
2023-03-10T21:33:33.823Z,3.90
2023-03-10T21:36:01.745Z,3.60
2023-03-10T21:38:28.833Z,3.80
2023-03-10T21:40:55.887Z,3.80
2023-03-10T21:43:22.674Z,3.90
2023-03-10T21:45:49.350Z,3.80
2023-03-10T21:48:16.203Z,3.90
2023-03-10T21:50:43.053Z,3.80
2023-03-10T21:53:09.908Z,3.90
2023-03-10T21:55:38.104Z,3.80
2023-03-10T21:58:05.645Z,3.70
2023-03-10T22:00:32.787Z,3.70
2023-03-10T22:02:59.498Z,3.80
2023-03-10T22:05:26.313Z,3.80
2023-03-10T22:07:53.486Z,3.90
2023-03-10T22:10:20.156Z,3.90
2023-03-10T22:12:47.861Z,3.80
2023-03-10T22:15:20.925Z,3.80
2023-03-10T22:17:47.967Z,3.70
2023-03-10T22:20:18.441Z,3.60
2023-03-10T22:22:45.341Z,3.40
2023-03-10T22:25:12.500Z,3.30
2023-03-10T22:27:39.178Z,3.10
2023-03-10T22:30:06.491Z,3.00
2023-03-10T22:32:33.232Z,3.00
2023-03-10T22:35:00.208Z,2.80
2023-03-10T22:37:26.870Z,2.80
2023-03-10T22:39:53.537Z,2.60
2023-03-10T22:42:20.180Z,2.60
2023-03-10T22:44:46.869Z,2.60
2023-03-10T22:47:13.517Z,2.50
2023-03-10T22:49:42.992Z,2.50
2023-03-10T22:52:10.908Z,2.50
2023-03-10T22:54:37.575Z,2.60
2023-03-10T22:57:04.453Z,2.60
2023-03-10T22:59:31.234Z,2.50
2023-03-10T23:01:58.003Z,2.60
2023-03-10T23:04:24.839Z,2.70
2023-03-10T23:06:51.513Z,2.60
2023-03-10T23:09:18.219Z,2.70
2023-03-10T23:11:46.576Z,2.70
2023-03-10T23:14:13.252Z,2.60
2023-03-10T23:16:40.300Z,2.50
2023-03-10T23:19:08.651Z,2.50
2023-03-10T23:21:36.162Z,2.50
2023-03-10T23:24:03.016Z,2.30
2023-03-10T23:26:31.234Z,2.40
2023-03-10T23:28:57.948Z,2.50
2023-03-10T23:31:24.714Z,2.50
2023-03-10T23:33:51.493Z,2.50
2023-03-10T23:36:18.430Z,2.50
2023-03-10T23:38:45.144Z,2.60
2023-03-10T23:41:11.966Z,2.60
2023-03-10T23:43:38.785Z,2.50
2023-03-10T23:46:06.664Z,2.40
2023-03-10T23:48:34.001Z,2.30
2023-03-10T23:51:02.684Z,2.30
2023-03-10T23:53:30.119Z,2.10
2023-03-10T23:55:58.703Z,2.20
2023-03-10T23:58:27.798Z,2.30
